EDDB 192350Z 26006KT CAVOK 18/13 Q1018 NOSIG EDDB 192320Z 25008KT CAVOK 18/13 Q1017 NOSIG EDDB 192250Z 26007KT CAVOK 19/13 Q1018 NOSIG EDDB 192220Z 28007KT CAVOK 21/13 Q1017 NOSIG EDDB 192150Z 29008KT CAVOK 21/11 Q1017 NOSIG EDDB 192120Z 27006KT CAVOK 21/08 Q1017 NOSIG EDDB 192050Z 18006KT CAVOK 21/07 Q1016 BECMG 27015KT EDDB 192020Z 20005KT CAVOK 22/06 Q1017 BECMG 27015KT EDDB 191950Z 17006KT CAVOK 21/06 Q1017 BECMG 27015KT EDDB 191920Z 17006KT CAVOK 23/06 Q1017 NOSIG EDDB 191850Z 18006KT CAVOK 23/07 Q1017 NOSIG EDDB 191820Z 17005KT CAVOK 25/07 Q1017 NOSIG EDDB 191750Z 16007KT CAVOK 25/07 Q1017 NOSIG EDDB 191720Z 17008KT CAVOK 26/06 Q1017 NOSIG EDDB 191650Z 18009KT CAVOK 27/07 Q1017 NOSIG EDDB 191620Z 17011KT CAVOK 27/07 Q1017 NOSIG EDDB 191550Z 18009KT 140V210 CAVOK 28/07 Q1017 NOSIG EDDB 191520Z 18010KT CAVOK 27/08 Q1018 NOSIG EDDB 191450Z 16011KT CAVOK 28/09 Q1018 NOSIG EDDB 191420Z 16011KT 120V190 CAVOK 28/09 Q1018 NOSIG EDDB 191350Z 21010KT 150V240 CAVOK 28/09 Q1019 NOSIG EDDB 191320Z 20010KT 150V240 CAVOK 28/09 Q1019 NOSIG EDDB 191250Z 19009KT 150V230 CAVOK 28/09 Q1019 NOSIG EDDB 191220Z 20011KT 160V230 CAVOK 28/10 Q1020 NOSIG EDDB 191150Z 19010KT 160V250 CAVOK 28/10 Q1020 NOSIG EDDB 191120Z 18010KT 160V220 CAVOK 27/10 Q1020 NOSIG EDDB 191050Z 22010KT 170V250 CAVOK 27/10 Q1021 NOSIG EDDB 191020Z 20011KT 170V240 CAVOK 27/10 Q1021 NOSIG EDDB 190950Z 21010KT 160V240 CAVOK 26/10 Q1021 NOSIG EDDB 190920Z 19010KT 160V220 CAVOK 26/11 Q1021 NOSIG EDDB 190850Z 18010KT 140V210 CAVOK 24/10 Q1022 NOSIG EDDB 190820Z 16007KT 130V200 CAVOK 23/11 Q1022 NOSIG EDDB 190750Z 17008KT 130V200 CAVOK 22/10 Q1022 NOSIG EDDB 190720Z 18007KT 140V210 CAVOK 21/10 Q1022 NOSIG EDDB 190650Z 17006KT 130V210 CAVOK 19/10 Q1022 NOSIG EDDB 190620Z 16006KT 140V200 CAVOK 18/09 Q1022 NOSIG EDDB 190550Z 15008KT CAVOK 17/08 Q1022 NOSIG EDDB 190520Z 14006KT CAVOK 16/08 Q1022 NOSIG EDDB 190450Z 13004KT 110V180 CAVOK 15/08 Q1022 NOSIG EDDB 190420Z 13005KT CAVOK 14/07 Q1022 NOSIG EDDB 190350Z 13004KT CAVOK 13/07 Q1022 NOSIG EDDB 190320Z 13005KT CAVOK 13/07 Q1022 NOSIG EDDB 190250Z 13004KT CAVOK 13/07 Q1022 NOSIG EDDB 190220Z 13004KT CAVOK 13/07 Q1022 NOSIG EDDB 190150Z 13003KT CAVOK 14/07 Q1022 NOSIG EDDB 190120Z 14005KT CAVOK 14/07 Q1022 NOSIG EDDB 190050Z 14006KT CAVOK 14/07 Q1022 NOSIG EDDB 190020Z 13006KT CAVOK 15/08 Q1022 NOSIG EDDB 182350Z 14005KT CAVOK 15/07 Q1023 NOSIG EDDB 182320Z 14006KT CAVOK 16/07 Q1023 NOSIG EDDB 182250Z 13007KT CAVOK 16/07 Q1023 NOSIG EDDB 182220Z 13007KT CAVOK 17/07 Q1023 NOSIG EDDB 182150Z 13006KT CAVOK 17/08 Q1023 NOSIG EDDB 182120Z 14007KT CAVOK 18/08 Q1023 NOSIG EDDB 182050Z 13005KT CAVOK 18/08 Q1023 NOSIG EDDB 182020Z 13005KT CAVOK 19/08 Q1023 NOSIG EDDB 181950Z 13005KT CAVOK 19/08 Q1023 NOSIG EDDB 181920Z 13006KT CAVOK 20/08 Q1023 NOSIG EDDB 181850Z 14006KT 060V150 CAVOK 20/08 Q1023 NOSIG EDDB 181820Z 14006KT CAVOK 22/08 Q1023 NOSIG EDDB 181750Z 14007KT CAVOK 23/08 Q1023 NOSIG EDDB 181720Z 13008KT CAVOK 23/08 Q1023 NOSIG EDDB 181650Z 14008KT CAVOK 24/09 Q1023 NOSIG EDDB 181620Z 15008KT CAVOK 24/09 Q1024 NOSIG EDDB 181550Z 15007KT 080V190 CAVOK 24/09 Q1024 NOSIG EDDB 181520Z 13010KT 110V170 CAVOK 24/09 Q1024 NOSIG EDDB 181450Z 16007KT 110V190 CAVOK 24/09 Q1024 NOSIG EDDB 181420Z 16008KT 120V180 CAVOK 24/09 Q1024 NOSIG EDDB 181350Z 17009KT 130V200 CAVOK 24/08 Q1024 NOSIG EDDB 181320Z 15009KT 110V190 CAVOK 24/09 Q1025 NOSIG EDDB 181250Z 14010KT 080V210 CAVOK 24/10 Q1025 NOSIG EDDB 181220Z 13011KT 110V170 CAVOK 23/09 Q1025 NOSIG

METAR Messwerte "BERLIN/BRANDERNB" EDDB

Zurück zur Übersicht

Ortsname
Ländercode / m ü. NN
Zeit Temperatur Taupunkt Rel.
Luftfeuchte
Luftdruck:
Altimeter
NN
Station
Wind in Beaufort
(Knoten)
Sichtweite
(Meter)
Wolken
(Meter über Grund)
Wettererscheinung
BERLIN/BRANDERNB
DE 48
Fr 20.05. 01:50181373 %1018
1018
1012
W 2 (6)>= 10000Nicht signifikant 
BERLIN/BRANDERNB
DE 48
Fr 20.05. 01:20181373 %1017
1017
1011
WSW 3 (8)>= 10000Nicht signifikant 
BERLIN/BRANDERNB
DE 48
Fr 20.05. 00:50191368 %1018
1018
1012
W 3 (7)>= 10000Nicht signifikant 
BERLIN/BRANDERNB
DE 48
Fr 20.05. 00:20211360 %1017
1017
1011
W 3 (7)>= 10000Nicht signifikant 
BERLIN/BRANDERNB
DE 48
Do 19.05. 23:50211153 %1017
1017
1011
WNW 3 (8)>= 10000Nicht signifikant 
BERLIN/BRANDERNB
DE 48
Do 19.05. 23:2021843 %1017
1017
1011
W 2 (6)>= 10000Nicht signifikant 
BERLIN/BRANDERNB
DE 48
Do 19.05. 22:5021740 %1016
1016
1010
S 2 (6)
Bald Übergang zu:
W 4 (15)
>= 10000Nicht signifikant 
BERLIN/BRANDERNB
DE 48
Do 19.05. 22:2022635 %1017
1017
1011
SSW 2 (5)
Bald Übergang zu:
W 4 (15)
>= 10000Nicht signifikant 
BERLIN/BRANDERNB
DE 48
Do 19.05. 21:5021638 %1017
1017
1011
S 2 (6)
Bald Übergang zu:
W 4 (15)
>= 10000Nicht signifikant 
BERLIN/BRANDERNB
DE 48
Do 19.05. 21:2023633 %1017
1017
1011
S 2 (6)>= 10000Nicht signifikant 
BERLIN/BRANDERNB
DE 48
Do 19.05. 20:5023736 %1017
1017
1011
S 2 (6)>= 10000Nicht signifikant 
BERLIN/BRANDERNB
DE 48
Do 19.05. 20:2025732 %1017
1017
1011
S 2 (5)>= 10000Nicht signifikant 
BERLIN/BRANDERNB
DE 48
Do 19.05. 19:5025732 %1017
1017
1011
SSO 3 (7)>= 10000Nicht signifikant 
BERLIN/BRANDERNB
DE 48
Do 19.05. 19:2026628 %1017
1017
1011
S 3 (8)>= 10000Nicht signifikant 
BERLIN/BRANDERNB
DE 48
Do 19.05. 18:5027728 %1017
1017
1011
S 3 (9)>= 10000Nicht signifikant 
BERLIN/BRANDERNB
DE 48
Do 19.05. 18:2027728 %1017
1017
1011
S 4 (11)>= 10000Nicht signifikant 
BERLIN/BRANDERNB
DE 48
Do 19.05. 17:5028727 %1017
1017
1011
S 3 (9)
SO - SSW
>= 10000Nicht signifikant 
BERLIN/BRANDERNB
DE 48
Do 19.05. 17:2027830 %1018
1018
1012
S 3 (10)>= 10000Nicht signifikant 
BERLIN/BRANDERNB
DE 48
Do 19.05. 16:5028930 %1018
1018
1012
SSO 4 (11)>= 10000Nicht signifikant 
BERLIN/BRANDERNB
DE 48
Do 19.05. 16:2028930 %1018
1018
1012
SSO 4 (11)
OSO - S
>= 10000Nicht signifikant 
BERLIN/BRANDERNB
DE 48
Do 19.05. 15:5028930 %1019
1019
1013
SSW 3 (10)
SSO - WSW
>= 10000Nicht signifikant 
BERLIN/BRANDERNB
DE 48
Do 19.05. 15:2028930 %1019
1019
1013
SSW 3 (10)
SSO - WSW
>= 10000Nicht signifikant 
BERLIN/BRANDERNB
DE 48
Do 19.05. 14:5028930 %1019
1019
1013
S 3 (9)
SSO - SW
>= 10000Nicht signifikant 
BERLIN/BRANDERNB
DE 48
Do 19.05. 14:20281032 %1020
1020
1014
SSW 4 (11)
SSO - SW
>= 10000Nicht signifikant 
BERLIN/BRANDERNB
DE 48
Do 19.05. 13:50281032 %1020
1020
1014
S 3 (10)
SSO - WSW
>= 10000Nicht signifikant 
BERLIN/BRANDERNB
DE 48
Do 19.05. 13:20271034 %1020
1020
1014
S 3 (10)
SSO - SW
>= 10000Nicht signifikant 
BERLIN/BRANDERNB
DE 48
Do 19.05. 12:50271034 %1021
1021
1015
SW 3 (10)
S - WSW
>= 10000Nicht signifikant 
BERLIN/BRANDERNB
DE 48
Do 19.05. 12:20271034 %1021
1021
1015
SSW 4 (11)
S - WSW
>= 10000Nicht signifikant 
BERLIN/BRANDERNB
DE 48
Do 19.05. 11:50261037 %1021
1021
1015
SSW 3 (10)
SSO - WSW
>= 10000Nicht signifikant 
BERLIN/BRANDERNB
DE 48
Do 19.05. 11:20261139 %1021
1021
1015
S 3 (10)
SSO - SW
>= 10000Nicht signifikant 
BERLIN/BRANDERNB
DE 48
Do 19.05. 10:50241041 %1022
1022
1016
S 3 (10)
SO - SSW
>= 10000Nicht signifikant 
BERLIN/BRANDERNB
DE 48
Do 19.05. 10:20231147 %1022
1022
1016
SSO 3 (7)
SO - SSW
>= 10000Nicht signifikant 
BERLIN/BRANDERNB
DE 48
Do 19.05. 09:50221046 %1022
1022
1016
S 3 (8)
SO - SSW
>= 10000Nicht signifikant 
BERLIN/BRANDERNB
DE 48
Do 19.05. 09:20211049 %1022
1022
1016
S 3 (7)
SO - SSW
>= 10000Nicht signifikant 
BERLIN/BRANDERNB
DE 48
Do 19.05. 08:50191056 %1022
1022
1016
S 2 (6)
SO - SSW
>= 10000Nicht signifikant 
BERLIN/BRANDERNB
DE 48
Do 19.05. 08:2018956 %1022
1022
1016
SSO 2 (6)
SO - SSW
>= 10000Nicht signifikant 
BERLIN/BRANDERNB
DE 48
Do 19.05. 07:5017855 %1022
1022
1016
SSO 3 (8)>= 10000Nicht signifikant 
BERLIN/BRANDERNB
DE 48
Do 19.05. 07:2016859 %1022
1022
1016
SO 2 (6)>= 10000Nicht signifikant 
BERLIN/BRANDERNB
DE 48
Do 19.05. 06:5015863 %1022
1022
1016
SO 2 (4)
OSO - S
>= 10000Nicht signifikant 
BERLIN/BRANDERNB
DE 48
Do 19.05. 06:2014763 %1022
1022
1016
SO 2 (5)>= 10000Nicht signifikant 
BERLIN/BRANDERNB
DE 48
Do 19.05. 05:5013767 %1022
1022
1016
SO 2 (4)>= 10000Nicht signifikant 
BERLIN/BRANDERNB
DE 48
Do 19.05. 05:2013767 %1022
1022
1016
SO 2 (5)>= 10000Nicht signifikant 
BERLIN/BRANDERNB
DE 48
Do 19.05. 04:5013767 %1022
1022
1016
SO 2 (4)>= 10000Nicht signifikant 
BERLIN/BRANDERNB
DE 48
Do 19.05. 04:2013767 %1022
1022
1016
SO 2 (4)>= 10000Nicht signifikant 
BERLIN/BRANDERNB
DE 48
Do 19.05. 03:5014763 %1022
1022
1016
SO 2 (3)>= 10000Nicht signifikant 
BERLIN/BRANDERNB
DE 48
Do 19.05. 03:2014763 %1022
1022
1016
SO 2 (5)>= 10000Nicht signifikant 
BERLIN/BRANDERNB
DE 48
Do 19.05. 02:5014763 %1022
1022
1016
SO 2 (6)>= 10000Nicht signifikant 
BERLIN/BRANDERNB
DE 48
Do 19.05. 02:2015863 %1022
1022
1016
SO 2 (6)>= 10000Nicht signifikant 
BERLIN/BRANDERNB
DE 48
Do 19.05. 01:5015759 %1023
1023
1017
SO 2 (5)>= 10000Nicht signifikant 
BERLIN/BRANDERNB
DE 48
Do 19.05. 01:2016755 %1023
1023
1017
SO 2 (6)>= 10000Nicht signifikant 
BERLIN/BRANDERNB
DE 48
Do 19.05. 00:5016755 %1023
1023
1017
SO 3 (7)>= 10000Nicht signifikant 
BERLIN/BRANDERNB
DE 48
Do 19.05. 00:2017752 %1023
1023
1017
SO 3 (7)>= 10000Nicht signifikant 
BERLIN/BRANDERNB
DE 48
Mi 18.05. 23:5017855 %1023
1023
1017
SO 2 (6)>= 10000Nicht signifikant 
BERLIN/BRANDERNB
DE 48
Mi 18.05. 23:2018852 %1023
1023
1017
SO 3 (7)>= 10000Nicht signifikant 
BERLIN/BRANDERNB
DE 48
Mi 18.05. 22:5018852 %1023
1023
1017
SO 2 (5)>= 10000Nicht signifikant 
BERLIN/BRANDERNB
DE 48
Mi 18.05. 22:2019849 %1023
1023
1017
SO 2 (5)>= 10000Nicht signifikant 
BERLIN/BRANDERNB
DE 48
Mi 18.05. 21:5019849 %1023
1023
1017
SO 2 (5)>= 10000Nicht signifikant 
BERLIN/BRANDERNB
DE 48
Mi 18.05. 21:2020846 %1023
1023
1017
SO 2 (6)>= 10000Nicht signifikant 
BERLIN/BRANDERNB
DE 48
Mi 18.05. 20:5020846 %1023
1023
1017
SO 2 (6)
ONO - SSO
>= 10000Nicht signifikant 
BERLIN/BRANDERNB
DE 48
Mi 18.05. 20:2022841 %1023
1023
1017
SO 2 (6)>= 10000Nicht signifikant 
BERLIN/BRANDERNB
DE 48
Mi 18.05. 19:5023838 %1023
1023
1017
SO 3 (7)>= 10000Nicht signifikant 
BERLIN/BRANDERNB
DE 48
Mi 18.05. 19:2023838 %1023
1023
1017
SO 3 (8)>= 10000Nicht signifikant 
BERLIN/BRANDERNB
DE 48
Mi 18.05. 18:5024938 %1023
1023
1017
SO 3 (8)>= 10000Nicht signifikant 
BERLIN/BRANDERNB
DE 48
Mi 18.05. 18:2024938 %1024
1024
1018
SSO 3 (8)>= 10000Nicht signifikant 
BERLIN/BRANDERNB
DE 48
Mi 18.05. 17:5024938 %1024
1024
1018
SSO 3 (7)
O - S
>= 10000Nicht signifikant 
BERLIN/BRANDERNB
DE 48
Mi 18.05. 17:2024938 %1024
1024
1018
SO 3 (10)
OSO - S
>= 10000Nicht signifikant 
BERLIN/BRANDERNB
DE 48
Mi 18.05. 16:5024938 %1024
1024
1018
SSO 3 (7)
OSO - S
>= 10000Nicht signifikant 
BERLIN/BRANDERNB
DE 48
Mi 18.05. 16:2024938 %1024
1024
1018
SSO 3 (8)
OSO - S
>= 10000Nicht signifikant 
BERLIN/BRANDERNB
DE 48
Mi 18.05. 15:5024836 %1024
1024
1018
S 3 (9)
SO - SSW
>= 10000Nicht signifikant 
BERLIN/BRANDERNB
DE 48
Mi 18.05. 15:2024938 %1025
1025
1019
SSO 3 (9)
OSO - S
>= 10000Nicht signifikant 
BERLIN/BRANDERNB
DE 48
Mi 18.05. 14:50241041 %1025
1025
1019
SO 3 (10)
O - SSW
>= 10000Nicht signifikant 
BERLIN/BRANDERNB
DE 48
Mi 18.05. 14:2023941 %1025
1025
1019
SO 4 (11)
OSO - S
>= 10000Nicht signifikant 

Altimeter: Einstellung am Altimeter (Höhenmesser), die Höhe 0 muss auf diesen Luftdruckwert zeigen, damit das Gerät die Stationshöhe richtig anzeigt.

NN: Luftdruck reduziert auf "Normal Null", auf Meereshöhe, dieser von der Temperatur abhängige Wert wird bisweilen unkorrekt einfach als "Luftdruck" bezeichnet. Eigentlich nur eine fiktive Größe, die es erlaubt, Stationen auf unterschiedlichen Höhen miteinander zu vergleichen.

Station: Realer Luftdruck an der Station.